Time;durP1;ratioP1;P1;durP2;ratioP2;P2;SDS_P1;SDS_P2;PMS_P1;PMS_P2;Temp;Humidity;BMP_temperature;BMP_pressure;BME280_temperature;BME280_humidity;BME280_pressure;Samples;Min_cycle;Max_cycle;Signal;HPM_P1;HPM_P2
2023/12/03 00:00:40;;;;;;;;;;;2.60;91.20;;;;;;5111235;28;19910;-79
2023/12/03 00:03:07;;;;;;;;;;;2.60;91.40;;;;;;5093053;28;19904;-79
2023/12/03 00:05:33;;;;;;;;;;;2.70;91.40;;;;;;5112007;28;19903;-80
2023/12/03 00:07:59;;;;;;;;;;;2.90;91.50;;;;;;5115259;28;19908;-81
2023/12/03 00:10:24;;;;;;;;;;;3.00;91.50;;;;;;5096868;28;19979;-80
2023/12/03 00:12:50;;;;;;;;;;;3.10;91.40;;;;;;5096829;28;19915;-80
2023/12/03 00:15:16;;;;;;;;;;;3.10;91.50;;;;;;5097119;28;19907;-81
2023/12/03 00:17:41;;;;;;;;;;;3.20;91.50;;;;;;5096877;28;19908;-81
2023/12/03 00:20:07;;;;;;;;;;;3.20;91.60;;;;;;5096624;28;20060;-78
2023/12/03 00:22:33;;;;;;;;;;;3.30;91.60;;;;;;5115116;28;19904;-78
2023/12/03 00:24:59;;;;;;;;;;;3.30;91.60;;;;;;5114887;28;20352;-79
2023/12/03 00:27:24;;;;;;;;;;;3.40;91.60;;;;;;5114913;28;19908;-79
2023/12/03 00:29:50;;;;;;;;;;;3.50;91.60;;;;;;5114915;28;19915;-81
2023/12/03 00:32:15;;;;;;;;;;;3.50;91.50;;;;;;5079651;28;19911;-81
2023/12/03 00:34:41;;;;;;;;;;;3.50;91.60;;;;;;5079639;28;19908;-81
2023/12/03 00:37:06;;;;;;;;;;;3.50;91.60;;;;;;5096513;28;19918;-81
2023/12/03 00:39:32;;;;;;;;;;;3.60;91.70;;;;;;5079534;28;19969;-81
2023/12/03 00:41:58;;;;;;;;;;;3.70;91.70;;;;;;5114603;28;19907;-80
2023/12/03 00:44:23;;;;;;;;;;;3.80;91.60;;;;;;5096223;28;19965;-81
2023/12/03 00:46:49;;;;;;;;;;;3.80;91.50;;;;;;5114471;28;20344;-80
2023/12/03 00:49:14;;;;;;;;;;;3.80;91.60;;;;;;5079298;28;19911;-81
2023/12/03 00:51:40;;;;;;;;;;;3.90;91.60;;;;;;5114762;28;19998;-81
2023/12/03 00:54:05;;;;;;;;;;;3.90;91.50;;;;;;5096162;28;19915;-80
2023/12/03 00:56:31;;;;;;;;;;;4.00;91.50;;;;;;5096386;28;19919;-80
2023/12/03 00:58:57;;;;;;;;;;;4.10;91.50;;;;;;5087137;28;20408;-80
2023/12/03 01:01:22;;;;;;;;;;;4.10;91.40;;;;;;5096191;28;20355;-80
2023/12/03 01:03:48;;;;;;;;;;;4.20;91.40;;;;;;5095936;28;20067;-81
2023/12/03 01:06:13;;;;;;;;;;;4.10;91.40;;;;;;5114459;28;19914;-80
2023/12/03 01:08:39;;;;;;;;;;;4.20;91.50;;;;;;5095897;28;19915;-81
2023/12/03 01:11:05;;;;;;;;;;;4.20;91.60;;;;;;5078641;28;19908;-80
2023/12/03 01:13:30;;;;;;;;;;;4.30;91.60;;;;;;5078759;28;19907;-81
2023/12/03 01:15:56;;;;;;;;;;;4.30;91.60;;;;;;5078902;28;19907;-81
2023/12/03 01:18:21;;;;;;;;;;;4.40;91.50;;;;;;5112725;28;19907;-81
2023/12/03 01:20:47;;;;;;;;;;;4.40;91.40;;;;;;5078807;28;20275;-81
2023/12/03 01:23:12;;;;;;;;;;;4.40;91.30;;;;;;5113878;28;20015;-81
2023/12/03 01:25:38;;;;;;;;;;;4.40;91.30;;;;;;5113734;28;20351;-81
2023/12/03 01:28:03;;;;;;;;;;;4.40;91.30;;;;;;5113914;28;20006;-80
2023/12/03 01:30:29;;;;;;;;;;;4.30;91.40;;;;;;5095451;28;19915;-81
2023/12/03 01:32:55;;;;;;;;;;;4.30;91.60;;;;;;5095531;28;19919;-81
2023/12/03 01:35:20;;;;;;;;;;;4.30;91.60;;;;;;5078420;28;20014;-81
2023/12/03 01:37:46;;;;;;;;;;;4.30;91.60;;;;;;5113610;28;19911;-81
2023/12/03 01:40:11;;;;;;;;;;;4.30;91.60;;;;;;5095550;28;19919;-81
2023/12/03 01:42:37;;;;;;;;;;;4.40;91.90;;;;;;5078504;28;19912;-80
2023/12/03 01:45:03;;;;;;;;;;;4.40;91.70;;;;;;5113455;28;19966;-80
2023/12/03 01:47:29;;;;;;;;;;;4.40;91.70;;;;;;5095268;28;19908;-80
2023/12/03 01:49:55;;;;;;;;;;;4.50;91.70;;;;;;5113352;28;19918;-80
2023/12/03 01:52:22;;;;;;;;;;;4.50;91.70;;;;;;5095292;28;20325;-80
2023/12/03 01:54:48;;;;;;;;;;;4.50;91.60;;;;;;5095332;28;19914;-80
2023/12/03 01:57:14;;;;;;;;;;;4.60;91.60;;;;;;5095741;28;19908;-81
2023/12/03 01:59:40;;;;;;;;;;;4.60;91.60;;;;;;5096390;28;20268;-80
2023/12/03 02:02:06;;;;;;;;;;;4.60;91.60;;;;;;5095693;28;20410;-80
2023/12/03 02:04:32;;;;;;;;;;;4.60;91.60;;;;;;5114105;28;19908;-81
2023/12/03 02:06:57;;;;;;;;;;;4.60;91.60;;;;;;5095355;28;19912;-80
2023/12/03 02:09:23;;;;;;;;;;;4.70;91.70;;;;;;5113584;28;19922;-81
2023/12/03 02:11:49;;;;;;;;;;;4.70;91.90;;;;;;5095417;28;19904;-81
2023/12/03 02:14:15;;;;;;;;;;;4.70;91.70;;;;;;5095542;28;19911;-81
2023/12/03 02:16:44;;;;;;;;;;;4.70;91.60;;;;;;5095398;28;19907;-81
2023/12/03 02:19:09;;;;;;;;;;;4.70;91.60;;;;;;5113405;28;19960;-80
2023/12/03 02:21:35;;;;;;;;;;;4.60;91.60;;;;;;5112760;28;19908;-81
2023/12/03 02:24:00;;;;;;;;;;;4.60;91.70;;;;;;5077365;28;19908;-80
2023/12/03 02:26:26;;;;;;;;;;;4.60;91.70;;;;;;5077438;28;20064;-80
2023/12/03 02:28:51;;;;;;;;;;;4.60;91.60;;;;;;5112551;28;19915;-81
2023/12/03 02:31:17;;;;;;;;;;;4.60;91.60;;;;;;5105052;28;19995;-81
2023/12/03 02:33:46;;;;;;;;;;;4.60;91.60;;;;;;5094553;28;19915;-80
2023/12/03 02:36:12;;;;;;;;;;;4.50;91.60;;;;;;5094190;28;19915;-80
2023/12/03 02:38:37;;;;;;;;;;;4.50;91.70;;;;;;5112393;28;19912;-81
2023/12/03 02:41:03;;;;;;;;;;;4.50;91.70;;;;;;5094147;28;20010;-81
2023/12/03 02:43:28;;;;;;;;;;;4.40;91.70;;;;;;5077174;28;20351;-81
2023/12/03 02:45:54;;;;;;;;;;;4.40;91.80;;;;;;5112344;28;19908;-80
2023/12/03 02:48:19;;;;;;;;;;;4.40;91.80;;;;;;5093868;28;19911;-80
2023/12/03 02:50:45;;;;;;;;;;;4.40;91.70;;;;;;5094067;28;19911;-80
2023/12/03 02:53:10;;;;;;;;;;;4.40;91.70;;;;;;5112315;28;19907;-81
2023/12/03 02:55:36;;;;;;;;;;;4.30;91.70;;;;;;5077076;28;20249;-80
2023/12/03 02:58:02;;;;;;;;;;;4.30;91.80;;;;;;5094103;28;19915;-80
2023/12/03 03:00:27;;;;;;;;;;;4.30;91.90;;;;;;5112163;28;19918;-80
2023/12/03 03:02:53;;;;;;;;;;;4.40;91.80;;;;;;5093878;28;19930;-80
2023/12/03 03:05:19;;;;;;;;;;;4.40;91.70;;;;;;5094109;28;19904;-80
2023/12/03 03:07:45;;;;;;;;;;;4.40;91.80;;;;;;5111989;28;20436;-81
2023/12/03 03:10:10;;;;;;;;;;;4.40;91.80;;;;;;5093750;28;20090;-80
2023/12/03 03:12:36;;;;;;;;;;;4.50;91.80;;;;;;5076850;28;19919;-81
2023/12/03 03:15:01;;;;;;;;;;;4.50;91.80;;;;;;5093856;28;19908;-80
2023/12/03 03:17:27;;;;;;;;;;;4.50;91.70;;;;;;5093748;28;20282;-80
2023/12/03 03:19:53;;;;;;;;;;;4.60;91.70;;;;;;5111988;28;19914;-80
2023/12/03 03:22:18;;;;;;;;;;;4.60;91.80;;;;;;5111922;28;19908;-80
2023/12/03 03:24:44;;;;;;;;;;;4.60;91.70;;;;;;5111709;28;19918;-80
2023/12/03 03:27:10;;;;;;;;;;;4.60;91.70;;;;;;5076810;28;19967;-80
2023/12/03 03:29:35;;;;;;;;;;;4.60;91.80;;;;;;5093623;28;19961;-80
2023/12/03 03:32:01;;;;;;;;;;;4.60;91.70;;;;;;5093496;28;19903;-79
2023/12/03 03:34:27;;;;;;;;;;;4.70;91.70;;;;;;5093556;28;19955;-80
2023/12/03 03:36:52;;;;;;;;;;;4.70;91.70;;;;;;5111695;28;20352;-80
2023/12/03 03:39:18;;;;;;;;;;;4.60;91.60;;;;;;5111746;28;19903;-80
2023/12/03 03:41:43;;;;;;;;;;;4.60;91.70;;;;;;5095900;28;19968;-80
2023/12/03 03:44:09;;;;;;;;;;;4.50;91.70;;;;;;5080601;28;19908;-80
2023/12/03 03:46:34;;;;;;;;;;;4.40;91.80;;;;;;5115944;28;19995;-80
2023/12/03 03:49:00;;;;;;;;;;;4.50;92.10;;;;;;5097320;28;20370;-80
2023/12/03 03:51:26;;;;;;;;;;;4.50;91.80;;;;;;5115727;28;20348;-80
2023/12/03 03:53:52;;;;;;;;;;;4.50;91.80;;;;;;5097367;28;19904;-80
2023/12/03 03:56:17;;;;;;;;;;;4.50;91.80;;;;;;5097249;28;20271;-80
2023/12/03 03:58:43;;;;;;;;;;;4.50;91.80;;;;;;5080298;28;20382;-80
2023/12/03 04:01:09;;;;;;;;;;;4.60;91.80;;;;;;5097273;28;19915;-81
2023/12/03 04:03:35;;;;;;;;;;;4.60;91.80;;;;;;5117722;28;19904;-81
2023/12/03 04:06:01;;;;;;;;;;;4.50;91.70;;;;;;5104648;28;19914;-80
2023/12/03 04:08:26;;;;;;;;;;;4.50;91.80;;;;;;5115409;28;20270;-80
2023/12/03 04:10:52;;;;;;;;;;;4.50;91.80;;;;;;5115545;28;19918;-80
2023/12/03 04:13:17;;;;;;;;;;;4.40;91.80;;;;;;5115480;28;19977;-80
2023/12/03 04:15:43;;;;;;;;;;;4.40;91.80;;;;;;5115368;28;19911;-80
2023/12/03 04:18:08;;;;;;;;;;;4.40;91.80;;;;;;5097027;28;19912;-80
2023/12/03 04:20:34;;;;;;;;;;;4.40;91.80;;;;;;5079982;28;19912;-80
2023/12/03 04:22:59;;;;;;;;;;;4.40;91.80;;;;;;5079879;28;19908;-80
2023/12/03 04:25:25;;;;;;;;;;;4.30;91.70;;;;;;5114934;28;19916;-80
2023/12/03 04:27:51;;;;;;;;;;;4.20;91.70;;;;;;5115180;28;20305;-80
2023/12/03 04:30:16;;;;;;;;;;;4.20;91.80;;;;;;5096538;28;19928;-80
2023/12/03 04:32:42;;;;;;;;;;;4.10;91.80;;;;;;5096575;28;20389;-80
2023/12/03 04:35:08;;;;;;;;;;;4.20;91.80;;;;;;5079667;28;20275;-80
2023/12/03 04:37:34;;;;;;;;;;;4.20;91.70;;;;;;5114818;28;20252;-80
2023/12/03 04:39:59;;;;;;;;;;;4.20;91.70;;;;;;5096554;28;19937;-80
2023/12/03 04:42:25;;;;;;;;;;;4.20;91.70;;;;;;5115103;28;19907;-80
2023/12/03 04:44:50;;;;;;;;;;;4.30;91.70;;;;;;5096500;28;20209;-81
2023/12/03 04:47:16;;;;;;;;;;;4.30;91.60;;;;;;5114763;28;19912;-81
2023/12/03 04:49:41;;;;;;;;;;;4.30;91.60;;;;;;5114493;28;19965;-81
2023/12/03 04:52:07;;;;;;;;;;;4.20;91.70;;;;;;5095941;28;19919;-81
2023/12/03 04:54:32;;;;;;;;;;;4.20;91.70;;;;;;5114630;28;19994;-81
2023/12/03 04:56:58;;;;;;;;;;;4.10;91.70;;;;;;5079344;28;20311;-81
2023/12/03 04:59:23;;;;;;;;;;;4.10;91.80;;;;;;5096202;28;20366;-80
2023/12/03 05:01:49;;;;;;;;;;;4.10;91.80;;;;;;5096217;28;19943;-81
2023/12/03 05:04:15;;;;;;;;;;;4.10;91.80;;;;;;5114351;28;19911;-80
2023/12/03 05:06:40;;;;;;;;;;;4.00;91.80;;;;;;5079145;28;19919;-79
2023/12/03 05:09:06;;;;;;;;;;;4.00;91.80;;;;;;5096035;28;20428;-80
2023/12/03 05:11:31;;;;;;;;;;;4.10;91.70;;;;;;5080439;28;20283;-80
2023/12/03 05:13:57;;;;;;;;;;;4.10;91.70;;;;;;5114179;28;20010;-80
2023/12/03 05:16:22;;;;;;;;;;;4.20;91.60;;;;;;5114005;28;19908;-80
2023/12/03 05:18:48;;;;;;;;;;;4.30;91.60;;;;;;5114065;28;19919;-80
2023/12/03 05:21:13;;;;;;;;;;;4.30;91.50;;;;;;5113986;28;20006;-81
2023/12/03 05:23:39;;;;;;;;;;;4.30;91.40;;;;;;5114007;28;19908;-80
2023/12/03 05:26:04;;;;;;;;;;;4.30;91.50;;;;;;5092272;28;20388;-80
2023/12/03 05:28:30;;;;;;;;;;;4.30;91.50;;;;;;5075075;28;19908;-80
2023/12/03 05:30:56;;;;;;;;;;;4.30;91.50;;;;;;5091894;28;20399;-80
2023/12/03 05:33:21;;;;;;;;;;;4.20;91.50;;;;;;5091794;28;19903;-80
2023/12/03 05:35:47;;;;;;;;;;;4.20;91.60;;;;;;5093171;28;19919;-80
2023/12/03 05:38:12;;;;;;;;;;;4.20;91.70;;;;;;5093868;28;19912;-80
2023/12/03 05:40:38;;;;;;;;;;;4.20;91.70;;;;;;5101048;28;20015;-80
2023/12/03 05:43:04;;;;;;;;;;;4.10;91.70;;;;;;5091575;28;19914;-81
2023/12/03 05:45:29;;;;;;;;;;;4.10;91.70;;;;;;5093026;28;20344;-80
2023/12/03 05:47:55;;;;;;;;;;;4.10;91.80;;;;;;5091568;28;20275;-81
2023/12/03 05:50:20;;;;;;;;;;;4.10;91.80;;;;;;5091289;28;19990;-81
2023/12/03 05:52:46;;;;;;;;;;;4.10;91.70;;;;;;5091659;28;19908;-80
2023/12/03 05:55:11;;;;;;;;;;;4.10;91.70;;;;;;5091658;28;19934;-80
2023/12/03 05:57:37;;;;;;;;;;;4.10;91.80;;;;;;5092963;28;19908;-80
2023/12/03 06:00:04;;;;;;;;;;;4.10;91.80;;;;;;5092853;28;19915;-80
2023/12/03 06:02:30;;;;;;;;;;;4.10;91.80;;;;;;5092591;28;19995;-80
2023/12/03 06:04:55;;;;;;;;;;;4.10;91.70;;;;;;5090361;28;20003;-80
2023/12/03 06:07:21;;;;;;;;;;;4.10;91.70;;;;;;5074242;28;19915;-80
2023/12/03 06:09:47;;;;;;;;;;;4.00;91.70;;;;;;5090865;28;19987;-80
2023/12/03 06:12:13;;;;;;;;;;;4.00;91.70;;;;;;5091102;28;20316;-80
2023/12/03 06:14:38;;;;;;;;;;;4.00;91.80;;;;;;5074130;28;20317;-80
2023/12/03 06:17:04;;;;;;;;;;;4.00;91.80;;;;;;5074189;28;19908;-80
2023/12/03 06:19:29;;;;;;;;;;;4.00;91.80;;;;;;5090991;28;19908;-80
2023/12/03 06:21:55;;;;;;;;;;;3.90;91.80;;;;;;5090945;28;20287;-80
2023/12/03 06:24:21;;;;;;;;;;;3.90;91.80;;;;;;5092079;28;19912;-80
2023/12/03 06:26:47;;;;;;;;;;;4.00;91.90;;;;;;5094683;28;20077;-80
2023/12/03 06:29:12;;;;;;;;;;;4.00;91.80;;;;;;5094628;28;20298;-80
2023/12/03 06:31:38;;;;;;;;;;;4.00;91.70;;;;;;5077625;28;19908;-81
2023/12/03 06:34:04;;;;;;;;;;;4.10;91.70;;;;;;5094312;28;19910;-80
2023/12/03 06:36:30;;;;;;;;;;;4.00;91.60;;;;;;5094378;28;19918;-80
2023/12/03 06:38:55;;;;;;;;;;;4.00;91.70;;;;;;5112616;28;19943;-80
2023/12/03 06:41:21;;;;;;;;;;;4.00;91.70;;;;;;5094365;28;19912;-80
2023/12/03 06:43:46;;;;;;;;;;;4.10;91.70;;;;;;5077398;28;19911;-80
2023/12/03 06:46:12;;;;;;;;;;;4.10;91.60;;;;;;5094175;28;19911;-80
2023/12/03 06:48:40;;;;;;;;;;;4.10;91.50;;;;;;5112460;28;20373;-80
2023/12/03 06:51:05;;;;;;;;;;;4.10;91.50;;;;;;5094527;28;19986;-80
2023/12/03 06:53:31;;;;;;;;;;;4.10;91.50;;;;;;5094188;28;20320;-80
2023/12/03 06:55:56;;;;;;;;;;;4.10;91.50;;;;;;5077709;28;19915;-80
2023/12/03 06:58:23;;;;;;;;;;;4.10;91.50;;;;;;5095001;28;20352;-72
2023/12/03 07:00:48;;;;;;;;;;;4.10;91.50;;;;;;5112259;28;19908;-80
2023/12/03 07:03:14;;;;;;;;;;;4.00;91.40;;;;;;5093913;28;19908;-80
2023/12/03 07:05:41;;;;;;;;;;;3.90;91.30;;;;;;5112274;28;20371;-80
2023/12/03 07:08:07;;;;;;;;;;;3.90;91.40;;;;;;5093830;28;20006;-80
2023/12/03 07:10:33;;;;;;;;;;;3.70;91.50;;;;;;5093594;28;20446;-80
2023/12/03 07:12:59;;;;;;;;;;;3.70;91.60;;;;;;5093764;28;19961;-81
2023/12/03 07:15:24;;;;;;;;;;;3.70;91.60;;;;;;5104643;28;19955;-80
2023/12/03 07:17:50;;;;;;;;;;;3.70;91.90;;;;;;5076954;28;19908;-80
2023/12/03 07:20:17;;;;;;;;;;;3.70;91.70;;;;;;5112052;28;19915;-80
2023/12/03 07:22:43;;;;;;;;;;;3.60;91.70;;;;;;5093786;28;19908;-80
2023/12/03 07:25:09;;;;;;;;;;;3.60;91.70;;;;;;5111805;28;19926;-80
2023/12/03 07:27:34;;;;;;;;;;;3.60;91.70;;;;;;5111995;28;20378;-80
2023/12/03 07:30:00;;;;;;;;;;;3.60;91.80;;;;;;5093494;28;19919;-80
2023/12/03 07:32:26;;;;;;;;;;;3.60;91.80;;;;;;5111818;28;19904;-80
2023/12/03 07:34:52;;;;;;;;;;;3.60;91.80;;;;;;5093520;28;19910;-80
2023/12/03 07:37:17;;;;;;;;;;;3.70;91.80;;;;;;5093827;28;20225;-80
2023/12/03 07:39:43;;;;;;;;;;;3.70;91.80;;;;;;5076631;28;19908;-80
2023/12/03 07:42:08;;;;;;;;;;;3.80;91.80;;;;;;5093495;28;20382;-80
2023/12/03 07:44:34;;;;;;;;;;;3.80;91.80;;;;;;5093368;28;20283;-80
2023/12/03 07:47:00;;;;;;;;;;;3.90;91.80;;;;;;5076497;28;19907;-80
2023/12/03 07:49:26;;;;;;;;;;;3.90;91.70;;;;;;5093243;28;19912;-80
2023/12/03 07:51:51;;;;;;;;;;;3.90;91.70;;;;;;5111678;28;19907;-81
2023/12/03 07:54:17;;;;;;;;;;;3.90;91.70;;;;;;5093576;28;20394;-80
2023/12/03 07:56:43;;;;;;;;;;;3.90;91.70;;;;;;5076415;28;19907;-80
2023/12/03 07:59:08;;;;;;;;;;;3.90;91.70;;;;;;5093178;28;19954;-78
2023/12/03 08:01:34;;;;;;;;;;;3.90;91.80;;;;;;5093206;28;19903;-80
2023/12/03 08:04:00;;;;;;;;;;;3.90;91.80;;;;;;5111641;28;19904;-80
2023/12/03 08:06:26;;;;;;;;;;;3.90;91.70;;;;;;5093062;28;20053;-80
2023/12/03 08:08:52;;;;;;;;;;;3.90;91.70;;;;;;5076206;28;19922;-80
2023/12/03 08:11:18;;;;;;;;;;;3.90;91.60;;;;;;5111476;28;19953;-80
2023/12/03 08:13:44;;;;;;;;;;;3.90;91.60;;;;;;5111318;28;19904;-80
2023/12/03 08:16:09;;;;;;;;;;;3.90;91.60;;;;;;5111557;28;20370;-80
2023/12/03 08:18:35;;;;;;;;;;;3.90;91.60;;;;;;5111250;28;20263;-80
2023/12/03 08:21:00;;;;;;;;;;;3.90;91.60;;;;;;5076466;28;19908;-80
2023/12/03 08:23:26;;;;;;;;;;;3.90;91.50;;;;;;5111439;28;20317;-80
2023/12/03 08:25:52;;;;;;;;;;;3.80;91.60;;;;;;5093034;28;20010;-80
2023/12/03 08:28:17;;;;;;;;;;;3.80;91.70;;;;;;5114222;28;20283;-81
2023/12/03 08:30:43;;;;;;;;;;;3.90;91.70;;;;;;5096579;28;19977;-80
2023/12/03 08:33:09;;;;;;;;;;;3.90;91.70;;;;;;5079713;28;19912;-80
2023/12/03 08:35:34;;;;;;;;;;;4.00;91.60;;;;;;5096502;28;19914;-80
2023/12/03 08:38:00;;;;;;;;;;;4.00;91.60;;;;;;5115072;28;19912;-80
2023/12/03 08:40:25;;;;;;;;;;;4.10;91.60;;;;;;5096667;28;19934;-80
2023/12/03 08:42:51;;;;;;;;;;;4.10;91.60;;;;;;5096481;28;20377;-80
2023/12/03 08:45:16;;;;;;;;;;;4.20;91.60;;;;;;5096200;28;20275;-80
2023/12/03 08:47:42;;;;;;;;;;;4.20;91.50;;;;;;5114585;28;19907;-80
2023/12/03 08:50:07;;;;;;;;;;;4.20;91.60;;;;;;5088070;28;19950;-80
2023/12/03 08:52:33;;;;;;;;;;;4.20;91.60;;;;;;5097545;28;19951;-80
2023/12/03 08:55:00;;;;;;;;;;;4.10;91.60;;;;;;5114611;28;19904;-80
2023/12/03 08:57:26;;;;;;;;;;;4.10;91.70;;;;;;5096517;28;20360;-80
2023/12/03 08:59:53;;;;;;;;;;;4.10;91.70;;;;;;5114154;28;19915;-80
2023/12/03 09:02:19;;;;;;;;;;;4.00;91.70;;;;;;5095887;28;19990;-79
2023/12/03 09:04:44;;;;;;;;;;;4.00;91.80;;;;;;5115047;28;19916;-80
2023/12/03 09:07:10;;;;;;;;;;;4.10;91.70;;;;;;5096044;28;19961;-83
2023/12/03 09:09:36;;;;;;;;;;;4.10;91.70;;;;;;5114238;28;20355;-80
2023/12/03 09:12:01;;;;;;;;;;;4.10;91.60;;;;;;5095988;28;19908;-80
2023/12/03 09:14:27;;;;;;;;;;;4.10;91.60;;;;;;5096253;28;19904;-80
2023/12/03 09:16:53;;;;;;;;;;;4.20;91.70;;;;;;5097084;28;19907;-80
2023/12/03 09:19:19;;;;;;;;;;;4.20;91.70;;;;;;5096960;28;19904;-80
2023/12/03 09:21:44;;;;;;;;;;;4.30;91.70;;;;;;5097255;28;19907;-80
2023/12/03 09:24:11;;;;;;;;;;;4.40;91.70;;;;;;5115558;28;19907;-80
2023/12/03 09:26:37;;;;;;;;;;;4.30;91.60;;;;;;5097078;28;19915;-80
2023/12/03 09:29:04;;;;;;;;;;;4.30;91.60;;;;;;5096820;28;19916;-77
2023/12/03 09:31:29;;;;;;;;;;;4.30;91.70;;;;;;5114625;28;20257;-80
2023/12/03 09:33:55;;;;;;;;;;;4.30;91.80;;;;;;5078501;28;19951;-80
2023/12/03 09:36:21;;;;;;;;;;;4.30;91.80;;;;;;5095432;28;20263;-80
2023/12/03 09:38:46;;;;;;;;;;;4.40;91.80;;;;;;5077379;28;20153;-80
2023/12/03 09:41:15;;;;;;;;;;;4.40;91.80;;;;;;5078742;28;19918;-81
2023/12/03 09:43:42;;;;;;;;;;;4.50;91.80;;;;;;5113988;28;19911;-81
2023/12/03 09:46:14;;;;;;;;;;;4.50;91.60;;;;;;5115102;28;20684;-72
2023/12/03 09:48:41;;;;;;;;;;;4.40;91.70;;;;;;5113083;28;19904;-80
2023/12/03 09:51:08;;;;;;;;;;;4.40;91.70;;;;;;5113655;28;19950;-80
2023/12/03 09:53:35;;;;;;;;;;;4.30;92.00;;;;;;5094764;28;19910;-80
2023/12/03 09:56:02;;;;;;;;;;;4.40;91.90;;;;;;5094664;28;19957;-80
2023/12/03 09:58:27;;;;;;;;;;;4.40;91.90;;;;;;5094332;28;19933;-79
2023/12/03 10:00:54;;;;;;;;;;;4.40;91.90;;;;;;5095160;28;19910;-80
2023/12/03 10:03:19;;;;;;;;;;;4.50;91.90;;;;;;5094820;28;19915;-80
2023/12/03 10:05:45;;;;;;;;;;;4.60;92.00;;;;;;5094919;28;19911;-80
2023/12/03 10:08:12;;;;;;;;;;;4.70;91.80;;;;;;5078089;28;19908;-80
2023/12/03 10:10:40;;;;;;;;;;;4.80;91.80;;;;;;5094523;28;19912;-80
2023/12/03 10:13:06;;;;;;;;;;;4.80;91.80;;;;;;5094785;28;19915;-80
2023/12/03 10:15:32;;;;;;;;;;;4.80;91.90;;;;;;5094932;28;19915;-80
2023/12/03 10:17:57;;;;;;;;;;;4.90;91.90;;;;;;5094809;28;19914;-80
2023/12/03 10:20:27;;;;;;;;;;;4.90;91.90;;;;;;5094346;28;19907;-80
2023/12/03 10:22:54;;;;;;;;;;;5.00;91.90;;;;;;5094232;28;20404;-80
2023/12/03 10:25:31;;;;;;;;;;;5.10;91.80;;;;;;5125429;28;19915;-81
2023/12/03 10:27:57;;;;;;;;;;;5.30;91.90;;;;;;5116259;28;19915;-81
2023/12/03 10:30:23;;;;;;;;;;;5.30;92.00;;;;;;5094289;28;19960;-80
2023/12/03 10:32:49;;;;;;;;;;;5.40;91.90;;;;;;5094201;28;19911;-80
2023/12/03 10:35:14;;;;;;;;;;;5.40;91.90;;;;;;5112528;28;19944;-80
2023/12/03 10:37:40;;;;;;;;;;;5.40;92.00;;;;;;5112327;28;20367;-80
2023/12/03 10:40:06;;;;;;;;;;;5.50;92.10;;;;;;5094183;28;19915;-80
2023/12/03 10:42:35;;;;;;;;;;;5.70;92.20;;;;;;5094032;28;19915;-80
2023/12/03 10:45:05;;;;;;;;;;;5.80;92.10;;;;;;5112263;28;19907;-80
2023/12/03 10:47:31;;;;;;;;;;;5.80;92.10;;;;;;5093881;28;20381;-80
2023/12/03 10:49:56;;;;;;;;;;;5.80;92.00;;;;;;5093475;28;19919;-80
2023/12/03 10:52:22;;;;;;;;;;;5.90;92.20;;;;;;5094363;28;20164;-81
2023/12/03 10:54:48;;;;;;;;;;;6.20;92.40;;;;;;5094072;28;19911;-81
2023/12/03 10:57:13;;;;;;;;;;;6.50;92.60;;;;;;5112297;28;20031;-81
2023/12/03 10:59:41;;;;;;;;;;;7.10;93.20;;;;;;5076867;28;19908;-81
2023/12/03 11:02:11;;;;;;;;;;;8.00;93.50;;;;;;5093530;28;19931;-79
2023/12/03 11:04:54;;;;;;;;;;;8.80;93.50;;;;;;5112074;28;20006;-79
2023/12/03 11:07:20;;;;;;;;;;;9.60;93.50;;;;;;5112348;28;19904;-80
2023/12/03 11:09:47;;;;;;;;;;;10.30;93.40;;;;;;5093447;28;20006;-81
2023/12/03 11:12:13;;;;;;;;;;;10.90;93.30;;;;;;5111808;28;20316;-80
2023/12/03 11:14:39;;;;;;;;;;;11.40;93.30;;;;;;5093361;28;19998;-80
2023/12/03 11:17:05;;;;;;;;;;;11.30;92.60;;;;;;5093408;28;19911;-78
2023/12/03 11:19:31;;;;;;;;;;;11.00;92.40;;;;;;5111660;28;19926;-80
2023/12/03 11:22:02;;;;;;;;;;;10.60;92.30;;;;;;5111856;28;19915;-82
2023/12/03 11:24:34;;;;;;;;;;;10.10;92.20;;;;;;5093215;28;19950;-82
2023/12/03 11:27:00;;;;;;;;;;;9.90;92.70;;;;;;5111965;28;19965;-81
2023/12/03 11:29:45;;;;;;;;;;;10.10;93.40;;;;;;5111662;28;19951;-80
2023/12/03 11:32:10;;;;;;;;;;;10.50;93.70;;;;;;5093302;28;20327;-82
2023/12/03 11:34:36;;;;;;;;;;;11.10;93.90;;;;;;5112527;28;19955;-81
2023/12/03 11:37:02;;;;;;;;;;;11.70;93.90;;;;;;5112354;28;19982;-82
2023/12/03 11:39:28;;;;;;;;;;;12.10;93.60;;;;;;5094247;28;19907;-79
2023/12/03 11:42:00;;;;;;;;;;;11.90;92.80;;;;;;5111482;28;19908;-82
2023/12/03 11:44:26;;;;;;;;;;;11.60;92.70;;;;;;5093248;28;20002;-80
2023/12/03 11:47:02;;;;;;;;;;;11.30;92.90;;;;;;5093387;28;20383;-82
2023/12/03 11:49:28;;;;;;;;;;;11.20;93.20;;;;;;5093182;28;20006;-82
2023/12/03 11:51:54;;;;;;;;;;;11.30;93.50;;;;;;5093146;28;19919;-82
2023/12/03 11:54:47;;;;;;;;;;;11.50;93.70;;;;;;5076388;28;19915;-82
2023/12/03 11:57:13;;;;;;;;;;;11.70;93.80;;;;;;5108101;28;20351;-83
2023/12/03 11:59:40;;;;;;;;;;;12.00;93.90;;;;;;5095422;28;19929;-82
2023/12/03 12:02:05;;;;;;;;;;;12.20;93.90;;;;;;5096718;28;19915;-83
2023/12/03 12:04:31;;;;;;;;;;;12.50;94.30;;;;;;5115791;28;19911;-83
2023/12/03 12:06:57;;;;;;;;;;;12.80;94.40;;;;;;5080147;28;19964;-80
2023/12/03 12:09:24;;;;;;;;;;;13.00;93.90;;;;;;5097093;28;19954;-83
2023/12/03 12:11:50;;;;;;;;;;;12.70;93.50;;;;;;5115263;28;19904;-82
2023/12/03 12:14:17;;;;;;;;;;;12.30;93.20;;;;;;5096766;28;19914;-83
2023/12/03 12:16:43;;;;;;;;;;;11.60;92.70;;;;;;5096811;28;19910;-83
2023/12/03 12:19:08;;;;;;;;;;;11.00;93.10;;;;;;5096613;28;19911;-83
2023/12/03 12:21:34;;;;;;;;;;;10.60;93.40;;;;;;5097705;28;19915;-82
2023/12/03 12:23:59;;;;;;;;;;;10.30;93.30;;;;;;5096206;28;19908;-81
2023/12/03 12:26:25;;;;;;;;;;;10.10;93.10;;;;;;5079349;28;19983;-81
2023/12/03 12:28:50;;;;;;;;;;;9.80;93.00;;;;;;5096632;28;19912;-82
2023/12/03 12:31:19;;;;;;;;;;;9.60;93.10;;;;;;5115200;28;19957;-81
2023/12/03 12:33:45;;;;;;;;;;;9.50;93.10;;;;;;5115086;28;19908;-82
2023/12/03 12:36:11;;;;;;;;;;;9.40;93.20;;;;;;5096352;28;19904;-82
2023/12/03 12:38:40;;;;;;;;;;;9.40;93.20;;;;;;5096254;28;19954;-82
2023/12/03 12:41:06;;;;;;;;;;;9.40;93.20;;;;;;5114360;28;20375;-82
2023/12/03 12:43:31;;;;;;;;;;;9.30;93.00;;;;;;5114101;28;20003;-81
2023/12/03 12:46:05;;;;;;;;;;;9.30;92.90;;;;;;5095916;28;19907;-82
2023/12/03 12:48:32;;;;;;;;;;;9.20;92.80;;;;;;5115566;28;19904;-81
2023/12/03 12:50:58;;;;;;;;;;;9.20;92.90;;;;;;5095671;28;19961;-82
2023/12/03 12:53:24;;;;;;;;;;;9.20;92.90;;;;;;5114214;28;19915;-82
2023/12/03 12:55:50;;;;;;;;;;;9.20;92.90;;;;;;5095841;28;19939;-81
2023/12/03 12:58:16;;;;;;;;;;;9.20;92.90;;;;;;5095567;28;19958;-82
2023/12/03 13:00:42;;;;;;;;;;;9.20;92.90;;;;;;5078583;28;20371;-81
2023/12/03 13:03:08;;;;;;;;;;;9.10;92.90;;;;;;5113852;28;20018;-82
2023/12/03 13:05:34;;;;;;;;;;;9.10;92.90;;;;;;5095532;28;19977;-81
2023/12/03 13:07:59;;;;;;;;;;;9.00;92.80;;;;;;5113671;28;19904;-82
2023/12/03 13:10:25;;;;;;;;;;;9.00;92.80;;;;;;5113551;28;19918;-81
2023/12/03 13:12:51;;;;;;;;;;;9.00;92.70;;;;;;5077959;28;19968;-81
2023/12/03 13:15:17;;;;;;;;;;;9.00;92.60;;;;;;5114308;28;20279;-82
2023/12/03 13:17:50;;;;;;;;;;;8.90;92.50;;;;;;5095399;28;19914;-82
2023/12/03 13:20:16;;;;;;;;;;;8.80;92.50;;;;;;5096230;28;19927;-81
2023/12/03 13:22:42;;;;;;;;;;;8.70;92.40;;;;;;5078578;28;19907;-81
2023/12/03 13:25:08;;;;;;;;;;;8.50;92.50;;;;;;5113586;28;20302;-81
2023/12/03 13:27:34;;;;;;;;;;;8.30;92.50;;;;;;5113411;28;19904;-81
2023/12/03 13:30:00;;;;;;;;;;;8.20;92.50;;;;;;5095137;28;20450;-81
2023/12/03 13:32:25;;;;;;;;;;;8.20;92.60;;;;;;5078894;28;19975;-81
2023/12/03 13:34:51;;;;;;;;;;;8.10;92.60;;;;;;5095773;28;19907;-81
2023/12/03 13:37:17;;;;;;;;;;;8.00;92.60;;;;;;5103875;28;19916;-79
2023/12/03 13:39:43;;;;;;;;;;;7.90;92.60;;;;;;5096938;28;19908;-81
2023/12/03 13:42:08;;;;;;;;;;;7.90;92.60;;;;;;5078139;28;19980;-81
2023/12/03 13:44:34;;;;;;;;;;;7.90;92.50;;;;;;5095039;28;20506;-81
2023/12/03 13:46:59;;;;;;;;;;;7.90;92.40;;;;;;5112889;28;19915;-81
2023/12/03 13:49:25;;;;;;;;;;;7.90;92.30;;;;;;5112709;28;19912;-81
2023/12/03 13:51:50;;;;;;;;;;;7.80;92.20;;;;;;5077805;28;19915;-81
2023/12/03 13:54:16;;;;;;;;;;;7.70;92.20;;;;;;5095251;28;19919;-81
2023/12/03 13:56:42;;;;;;;;;;;7.60;92.20;;;;;;5094692;28;19915;-81
2023/12/03 13:59:07;;;;;;;;;;;7.60;92.30;;;;;;5112859;28;20315;-81
2023/12/03 14:01:33;;;;;;;;;;;7.50;92.30;;;;;;5094447;28;19943;-82
2023/12/03 14:03:59;;;;;;;;;;;7.60;92.40;;;;;;5112955;28;19907;-82
2023/12/03 14:06:24;;;;;;;;;;;7.60;92.40;;;;;;5094298;28;20391;-81
2023/12/03 14:08:50;;;;;;;;;;;7.60;92.40;;;;;;5093471;28;20427;-81
2023/12/03 14:11:16;;;;;;;;;;;7.60;92.40;;;;;;5093958;28;20313;-81
2023/12/03 14:13:41;;;;;;;;;;;7.60;92.30;;;;;;5112820;28;19914;-81
2023/12/03 14:16:07;;;;;;;;;;;7.70;92.20;;;;;;5112584;28;19907;-82
2023/12/03 14:18:33;;;;;;;;;;;7.70;92.50;;;;;;5094478;28;19908;-82
2023/12/03 14:20:58;;;;;;;;;;;7.70;92.20;;;;;;5112724;28;20274;-81